createdAt,value
2023-06-15T00:00:47.358Z,9.73
2023-06-15T00:03:13.699Z,9.75
2023-06-15T00:05:40.006Z,9.74
2023-06-15T00:08:06.188Z,9.74
2023-06-15T00:10:32.338Z,9.73
2023-06-15T00:12:58.495Z,9.59
2023-06-15T00:15:24.653Z,9.66
2023-06-15T00:17:50.847Z,9.56
2023-06-15T00:20:17.013Z,9.56
2023-06-15T00:22:43.173Z,9.66
2023-06-15T00:25:09.346Z,9.43
2023-06-15T00:27:35.505Z,9.42
2023-06-15T00:30:01.672Z,9.43
2023-06-15T00:32:27.939Z,9.37
2023-06-15T00:34:54.274Z,9.46
2023-06-15T00:37:20.433Z,9.36
2023-06-15T00:39:46.598Z,9.24
2023-06-15T00:42:12.741Z,9.30
2023-06-15T00:44:38.915Z,9.40
2023-06-15T00:47:05.107Z,9.42
2023-06-15T00:49:31.304Z,9.46
2023-06-15T00:51:57.447Z,9.42
2023-06-15T00:54:23.620Z,9.38
2023-06-15T00:56:49.785Z,9.46
2023-06-15T00:59:15.931Z,9.68
2023-06-15T01:01:42.113Z,9.75
2023-06-15T01:04:08.320Z,9.72
2023-06-15T01:06:34.507Z,9.84
2023-06-15T01:09:00.653Z,9.63
2023-06-15T01:11:28.592Z,9.43
2023-06-15T01:13:56.665Z,9.43
2023-06-15T01:16:22.835Z,9.45
2023-06-15T01:18:48.987Z,9.44
2023-06-15T01:21:15.152Z,9.48
2023-06-15T01:23:41.319Z,9.34
2023-06-15T01:26:07.481Z,9.44
2023-06-15T01:28:33.643Z,9.64
2023-06-15T01:30:59.837Z,9.44
2023-06-15T01:33:26.026Z,9.16
2023-06-15T01:35:52.190Z,9.10
2023-06-15T01:38:18.361Z,8.99
2023-06-15T01:40:44.534Z,9.15
2023-06-15T01:43:10.693Z,9.02
2023-06-15T01:45:36.932Z,8.98
2023-06-15T01:48:03.162Z,8.90
2023-06-15T01:50:29.391Z,8.90
2023-06-15T01:52:55.526Z,8.88
2023-06-15T01:55:21.708Z,9.11
2023-06-15T01:57:47.884Z,9.07
2023-06-15T02:00:14.016Z,9.09
2023-06-15T02:02:40.192Z,9.12
2023-06-15T02:05:06.344Z,8.93
2023-06-15T02:07:32.497Z,8.86
2023-06-15T02:09:58.659Z,8.81
2023-06-15T02:12:24.810Z,8.85
2023-06-15T02:14:50.966Z,8.81
2023-06-15T02:17:17.121Z,8.83
2023-06-15T02:19:43.286Z,8.87
2023-06-15T02:22:09.462Z,8.96
2023-06-15T02:24:35.677Z,8.90
2023-06-15T02:27:01.856Z,8.90
2023-06-15T02:29:28.039Z,8.90
2023-06-15T02:31:54.165Z,8.85
2023-06-15T02:34:20.331Z,8.80
2023-06-15T02:36:46.519Z,8.89
2023-06-15T02:39:12.670Z,8.89
2023-06-15T02:41:38.804Z,8.68
2023-06-15T02:44:04.941Z,8.48
2023-06-15T02:46:31.104Z,8.48
2023-06-15T02:48:57.269Z,8.56
2023-06-15T02:51:23.417Z,8.58
2023-06-15T02:53:49.579Z,8.63
2023-06-15T02:56:15.746Z,8.54
2023-06-15T02:58:41.886Z,8.58
2023-06-15T03:01:08.021Z,8.35
2023-06-15T03:03:34.196Z,8.26
2023-06-15T03:08:26.573Z,8.62
2023-06-15T03:10:52.752Z,8.58
2023-06-15T03:13:18.906Z,8.43
2023-06-15T03:15:45.057Z,8.34
2023-06-15T03:18:11.248Z,8.25
2023-06-15T03:20:37.512Z,8.29
2023-06-15T03:23:03.721Z,8.34
2023-06-15T03:25:29.896Z,8.22
2023-06-15T03:27:56.256Z,8.27
2023-06-15T03:30:22.389Z,8.24
2023-06-15T03:32:48.545Z,8.21
2023-06-15T03:35:14.783Z,8.15
2023-06-15T03:37:40.945Z,8.34
2023-06-15T03:40:07.098Z,8.44
2023-06-15T03:42:33.262Z,8.34
2023-06-15T03:44:59.422Z,8.38
2023-06-15T03:47:25.644Z,8.37
2023-06-15T03:49:51.833Z,8.27
2023-06-15T03:52:17.979Z,8.21
2023-06-15T03:54:44.142Z,8.33
2023-06-15T03:57:10.311Z,8.40
2023-06-15T03:59:36.482Z,8.42
2023-06-15T04:02:02.664Z,8.37
2023-06-15T04:04:28.914Z,8.26
2023-06-15T04:06:55.108Z,8.23
2023-06-15T04:09:21.270Z,8.21
2023-06-15T04:11:47.444Z,8.40
2023-06-15T04:14:13.588Z,8.31
2023-06-15T04:16:39.725Z,8.32
2023-06-15T04:19:05.881Z,8.19
2023-06-15T04:21:32.020Z,8.20
2023-06-15T04:23:58.221Z,8.27
2023-06-15T04:26:24.415Z,8.28
2023-06-15T04:28:50.550Z,8.29
2023-06-15T04:31:16.715Z,8.41
2023-06-15T04:33:42.854Z,8.48
2023-06-15T04:36:08.990Z,8.43
2023-06-15T04:38:35.139Z,8.40
2023-06-15T04:41:01.838Z,8.29
2023-06-15T04:43:28.206Z,8.41
2023-06-15T04:45:54.371Z,8.44
2023-06-15T04:48:20.512Z,8.42
2023-06-15T04:50:46.701Z,8.41
2023-06-15T04:53:12.865Z,8.52
2023-06-15T04:55:39.018Z,8.62
2023-06-15T04:58:05.149Z,8.60
2023-06-15T05:00:33.644Z,8.49
2023-06-15T05:03:00.058Z,8.48
2023-06-15T05:05:26.362Z,8.67
2023-06-15T05:07:52.503Z,8.66
2023-06-15T05:10:18.658Z,8.79
2023-06-15T05:12:44.805Z,8.84
2023-06-15T05:15:10.975Z,8.81
2023-06-15T05:17:37.149Z,8.73
2023-06-15T05:20:03.406Z,8.67
2023-06-15T05:22:29.567Z,8.73
2023-06-15T05:24:55.727Z,8.84
2023-06-15T05:27:21.908Z,8.76
2023-06-15T05:29:48.076Z,8.69
2023-06-15T05:32:14.238Z,8.77
2023-06-15T05:34:40.373Z,8.78
2023-06-15T05:37:06.528Z,8.76
2023-06-15T05:39:32.693Z,8.77
2023-06-15T05:41:58.880Z,8.69
2023-06-15T05:44:25.050Z,8.86
2023-06-15T05:46:51.222Z,8.90
2023-06-15T05:49:17.384Z,9.12
2023-06-15T05:51:43.573Z,9.11
2023-06-15T05:54:09.784Z,9.20
2023-06-15T05:56:35.950Z,9.24
2023-06-15T05:59:02.093Z,9.46
2023-06-15T06:01:28.264Z,9.45
2023-06-15T06:03:54.449Z,9.35
2023-06-15T06:06:20.641Z,9.42
2023-06-15T06:08:46.828Z,9.65
2023-06-15T06:11:12.981Z,9.75
2023-06-15T06:13:39.161Z,9.96
2023-06-15T06:16:05.310Z,9.98
2023-06-15T06:18:31.585Z,9.84
2023-06-15T06:20:57.830Z,10.19
2023-06-15T06:23:23.987Z,10.41
2023-06-15T06:25:50.182Z,10.50
2023-06-15T06:28:16.350Z,10.62
2023-06-15T06:30:42.490Z,10.98
2023-06-15T06:33:08.725Z,11.02
2023-06-15T06:35:34.925Z,11.35
2023-06-15T06:38:01.056Z,11.73
2023-06-15T06:40:27.431Z,11.81
2023-06-15T06:42:53.623Z,12.07
2023-06-15T06:45:20.040Z,11.95
2023-06-15T06:47:46.415Z,11.80
2023-06-15T06:50:12.644Z,12.20
2023-06-15T06:52:38.797Z,12.47
2023-06-15T06:55:04.961Z,12.68
2023-06-15T06:57:31.136Z,12.72
2023-06-15T06:59:57.293Z,12.87
2023-06-15T07:02:24.599Z,12.92
2023-06-15T07:04:50.835Z,12.71
2023-06-15T07:07:16.974Z,13.07
2023-06-15T07:09:43.151Z,13.13
2023-06-15T07:12:09.320Z,13.04
2023-06-15T07:14:35.479Z,13.59
2023-06-15T07:17:01.675Z,13.25
2023-06-15T07:19:27.806Z,13.53
2023-06-15T07:21:53.965Z,13.61
2023-06-15T07:24:20.195Z,13.59
2023-06-15T07:26:46.381Z,13.79
2023-06-15T07:29:12.528Z,13.58
2023-06-15T07:31:38.702Z,14.27
2023-06-15T07:34:04.878Z,14.29
2023-06-15T07:36:31.047Z,13.64
2023-06-15T07:38:57.215Z,14.20
2023-06-15T07:41:23.398Z,14.47
2023-06-15T07:43:49.628Z,14.11
2023-06-15T07:46:15.794Z,14.20
2023-06-15T07:48:41.930Z,14.42
2023-06-15T07:51:08.117Z,14.33
2023-06-15T07:53:34.288Z,14.30
2023-06-15T07:56:00.492Z,14.18
2023-06-15T07:58:26.659Z,13.95
2023-06-15T08:00:52.797Z,13.98
2023-06-15T08:03:19.029Z,13.96
2023-06-15T08:05:45.288Z,14.00
2023-06-15T08:08:11.466Z,14.11
2023-06-15T08:10:38.263Z,14.23
2023-06-15T08:13:05.139Z,14.46
2023-06-15T08:15:31.323Z,14.15
2023-06-15T08:17:57.525Z,14.09
2023-06-15T08:20:23.765Z,14.36
2023-06-15T08:22:49.933Z,14.31
2023-06-15T08:25:16.094Z,14.36
2023-06-15T08:27:42.259Z,14.18
2023-06-15T08:30:08.678Z,14.33
2023-06-15T08:32:34.896Z,14.60
2023-06-15T08:35:01.058Z,14.88
2023-06-15T08:37:27.220Z,14.53
2023-06-15T08:39:53.364Z,14.61
2023-06-15T08:42:19.733Z,14.57
2023-06-15T08:44:45.921Z,14.67
2023-06-15T08:47:12.080Z,14.54
2023-06-15T08:49:38.239Z,14.81
2023-06-15T08:52:04.381Z,14.60
2023-06-15T08:54:30.549Z,14.75
2023-06-15T08:56:56.680Z,14.87
2023-06-15T08:59:22.841Z,14.78
2023-06-15T09:01:49.047Z,14.95
2023-06-15T09:04:15.241Z,15.16
2023-06-15T09:06:41.419Z,15.21
2023-06-15T09:09:07.584Z,15.15
2023-06-15T09:11:34.356Z,15.52
2023-06-15T09:14:00.601Z,15.52
2023-06-15T09:16:26.801Z,15.41
2023-06-15T09:18:52.988Z,15.20
2023-06-15T09:21:19.156Z,15.30
2023-06-15T09:23:45.345Z,15.40
2023-06-15T09:26:11.511Z,15.23
2023-06-15T09:28:37.663Z,15.43
2023-06-15T09:31:03.839Z,15.25
2023-06-15T09:33:30.010Z,15.33
2023-06-15T09:35:56.165Z,15.48
2023-06-15T09:38:22.351Z,15.43
2023-06-15T09:40:48.484Z,15.65
2023-06-15T09:43:14.631Z,16.07
2023-06-15T09:45:40.803Z,15.91
2023-06-15T09:48:07.137Z,16.22
2023-06-15T09:50:33.337Z,16.16
2023-06-15T09:52:59.484Z,16.04
2023-06-15T09:55:25.642Z,16.08
2023-06-15T09:57:51.820Z,15.84
2023-06-15T10:00:18.279Z,16.11
2023-06-15T10:02:44.778Z,15.94
2023-06-15T10:05:11.011Z,15.93
2023-06-15T10:07:37.157Z,16.32
2023-06-15T10:10:03.313Z,15.92
2023-06-15T10:12:29.488Z,16.07
2023-06-15T10:14:55.648Z,16.56
2023-06-15T10:17:21.819Z,16.80
2023-06-15T10:19:47.967Z,16.58
2023-06-15T10:22:14.134Z,16.37
2023-06-15T10:24:40.305Z,16.46
2023-06-15T10:27:06.477Z,16.53
2023-06-15T10:29:32.611Z,16.77
2023-06-15T10:31:58.778Z,16.44
2023-06-15T10:34:24.954Z,16.32
2023-06-15T10:36:51.120Z,16.85
2023-06-15T10:39:17.270Z,16.88
2023-06-15T10:41:43.529Z,17.24
2023-06-15T10:44:09.711Z,17.59
2023-06-15T10:46:35.868Z,17.10
2023-06-15T10:49:02.026Z,16.86
2023-06-15T10:51:28.173Z,17.33
2023-06-15T10:53:54.302Z,17.48
2023-06-15T10:56:20.464Z,17.33
2023-06-15T10:58:46.651Z,17.53
2023-06-15T11:01:12.775Z,17.79
2023-06-15T11:03:38.922Z,17.57
2023-06-15T11:06:05.105Z,17.45
2023-06-15T11:08:31.274Z,17.18
2023-06-15T11:10:57.443Z,17.64
2023-06-15T11:13:23.577Z,17.58
2023-06-15T11:15:49.714Z,17.32
2023-06-15T11:18:15.898Z,17.80
2023-06-15T11:20:42.188Z,18.10
2023-06-15T11:23:08.460Z,17.82
2023-06-15T11:25:34.687Z,18.39
2023-06-15T11:28:00.849Z,18.25
2023-06-15T11:30:27.002Z,17.41
2023-06-15T11:32:53.176Z,17.31
2023-06-15T11:35:19.356Z,17.77
2023-06-15T11:37:45.516Z,17.97
2023-06-15T11:40:11.882Z,17.88
2023-06-15T11:42:38.084Z,17.62
2023-06-15T11:45:04.225Z,17.76
2023-06-15T11:47:30.404Z,17.73
2023-06-15T11:49:56.670Z,17.72
2023-06-15T11:52:22.818Z,17.86
2023-06-15T11:54:53.813Z,18.20
2023-06-15T11:57:20.865Z,18.22
2023-06-15T11:59:47.026Z,17.97
2023-06-15T12:02:13.182Z,17.94
2023-06-15T12:04:39.451Z,18.21
2023-06-15T12:07:05.653Z,18.37
2023-06-15T12:09:31.952Z,18.56
2023-06-15T12:11:58.135Z,18.84
2023-06-15T12:14:24.310Z,18.52
2023-06-15T12:16:50.612Z,18.78
2023-06-15T12:19:16.818Z,18.07
2023-06-15T12:21:42.969Z,18.33
2023-06-15T12:24:09.175Z,18.31
2023-06-15T12:26:35.387Z,18.88
2023-06-15T12:29:01.553Z,18.19
2023-06-15T12:31:27.854Z,18.42
2023-06-15T12:33:56.403Z,18.02
2023-06-15T12:36:22.923Z,18.18
2023-06-15T12:38:49.122Z,18.55
2023-06-15T12:41:15.308Z,18.70
2023-06-15T12:43:41.440Z,19.12
2023-06-15T12:46:07.917Z,18.90
2023-06-15T12:48:34.080Z,18.37
2023-06-15T12:51:00.237Z,18.97
2023-06-15T12:53:26.400Z,19.06
2023-06-15T12:55:52.547Z,19.02
2023-06-15T12:58:18.704Z,18.67
2023-06-15T13:00:44.845Z,18.83
2023-06-15T13:03:11.095Z,18.78
2023-06-15T13:05:37.368Z,19.08
2023-06-15T13:08:03.540Z,18.64
2023-06-15T13:10:29.712Z,18.22
2023-06-15T13:12:55.911Z,18.68
2023-06-15T13:15:22.063Z,18.38
2023-06-15T13:17:48.261Z,18.17
2023-06-15T13:20:14.562Z,18.34
2023-06-15T13:22:40.770Z,18.61
2023-06-15T13:25:06.937Z,18.69
2023-06-15T13:27:33.099Z,18.64
2023-06-15T13:29:59.422Z,18.29
2023-06-15T13:32:25.607Z,18.37
2023-06-15T13:34:51.771Z,18.27
2023-06-15T13:37:18.037Z,17.72
2023-06-15T13:39:44.215Z,17.66
2023-06-15T13:42:10.393Z,17.76
2023-06-15T13:44:36.557Z,17.92
2023-06-15T13:47:02.715Z,18.31
2023-06-15T13:49:28.865Z,18.19
2023-06-15T13:51:55.052Z,17.48
2023-06-15T13:54:21.216Z,17.59
2023-06-15T13:56:47.378Z,17.83
2023-06-15T13:59:13.519Z,17.84
2023-06-15T14:01:39.678Z,17.25
2023-06-15T14:04:05.932Z,17.68
2023-06-15T14:06:32.210Z,17.79
2023-06-15T14:08:58.367Z,17.93
2023-06-15T14:11:24.525Z,18.11
2023-06-15T14:13:50.672Z,18.38
2023-06-15T14:16:16.980Z,18.45
2023-06-15T14:18:43.153Z,18.49
2023-06-15T14:21:09.311Z,18.16
2023-06-15T14:23:37.989Z,18.51
2023-06-15T14:26:04.158Z,17.95
2023-06-15T14:28:30.321Z,18.21
2023-06-15T14:30:56.487Z,17.77
2023-06-15T14:33:22.640Z,17.61
2023-06-15T14:35:48.775Z,17.77
2023-06-15T14:38:15.063Z,18.14
2023-06-15T14:40:41.200Z,18.32
2023-06-15T14:43:07.330Z,18.11
2023-06-15T14:45:33.536Z,18.28
2023-06-15T14:48:03.987Z,18.56
2023-06-15T14:50:30.181Z,18.61
2023-06-15T14:52:56.325Z,18.32
2023-06-15T14:55:22.492Z,18.55
2023-06-15T14:57:48.868Z,18.24
2023-06-15T15:00:15.347Z,18.91
2023-06-15T15:02:41.813Z,18.50
2023-06-15T15:05:08.019Z,17.98
2023-06-15T15:07:35.145Z,18.51
2023-06-15T15:10:01.958Z,18.22
2023-06-15T15:12:28.093Z,18.17
2023-06-15T15:14:54.248Z,18.46
2023-06-15T15:17:20.382Z,18.35
2023-06-15T15:19:46.508Z,18.28
2023-06-15T15:22:12.671Z,18.33
2023-06-15T15:24:38.873Z,18.31
2023-06-15T15:27:05.111Z,18.26
2023-06-15T15:29:31.393Z,18.82
2023-06-15T15:31:57.693Z,18.74
2023-06-15T15:34:23.913Z,18.47
2023-06-15T15:36:50.114Z,18.33
2023-06-15T15:39:16.330Z,18.48
2023-06-15T15:41:42.489Z,18.45
2023-06-15T15:44:08.671Z,18.93
2023-06-15T15:46:34.899Z,19.19
2023-06-15T15:49:01.460Z,18.97
2023-06-15T15:51:27.596Z,18.97
2023-06-15T15:53:53.824Z,18.76
2023-06-15T15:56:19.988Z,18.00
2023-06-15T15:58:46.169Z,18.48
2023-06-15T16:01:12.359Z,18.41
2023-06-15T16:03:38.618Z,18.53
2023-06-15T16:06:04.929Z,19.03
2023-06-15T16:08:31.081Z,18.45
2023-06-15T16:10:57.245Z,18.63
2023-06-15T16:13:23.401Z,18.61
2023-06-15T16:16:01.471Z,18.73
2023-06-15T16:18:35.674Z,17.87
2023-06-15T16:21:01.839Z,18.16
2023-06-15T16:23:27.997Z,17.47
2023-06-15T16:25:54.128Z,17.12
2023-06-15T16:28:20.295Z,16.97
2023-06-15T16:30:46.444Z,17.56
2023-06-15T16:33:12.664Z,17.81
2023-06-15T16:35:38.986Z,17.24
2023-06-15T16:38:05.324Z,17.26
2023-06-15T16:40:31.489Z,16.73
2023-06-15T16:42:57.662Z,16.21
2023-06-15T16:45:23.951Z,16.29
2023-06-15T16:47:50.194Z,15.95
2023-06-15T16:50:16.672Z,15.90
2023-06-15T16:52:43.216Z,15.99
2023-06-15T16:55:09.366Z,16.31
2023-06-15T16:57:35.497Z,16.83
2023-06-15T17:00:01.650Z,16.82
2023-06-15T17:02:27.888Z,16.65
2023-06-15T17:04:54.104Z,16.66
2023-06-15T17:07:20.297Z,17.15
2023-06-15T17:09:46.468Z,16.74
2023-06-15T17:12:12.629Z,16.88
2023-06-15T17:14:38.780Z,17.47
2023-06-15T17:17:04.947Z,17.38
2023-06-15T17:19:31.126Z,17.98
2023-06-15T17:21:57.285Z,17.37
2023-06-15T17:24:23.501Z,17.83
2023-06-15T17:26:49.697Z,18.00
2023-06-15T17:29:15.873Z,17.88
2023-06-15T17:31:42.012Z,17.53
2023-06-15T17:34:08.181Z,17.35
2023-06-15T17:36:34.332Z,17.45
2023-06-15T17:39:00.470Z,17.71
2023-06-15T17:41:26.638Z,17.88
2023-06-15T17:43:52.843Z,17.23
2023-06-15T17:46:19.140Z,16.99
2023-06-15T17:48:45.333Z,16.89
2023-06-15T17:51:11.497Z,17.18
2023-06-15T17:53:37.670Z,17.16
2023-06-15T17:56:03.835Z,16.62
2023-06-15T17:58:29.972Z,16.20
2023-06-15T18:00:56.139Z,16.21
2023-06-15T18:03:22.415Z,16.69
2023-06-15T18:05:48.690Z,16.71
2023-06-15T18:08:14.868Z,16.87
2023-06-15T18:10:41.020Z,16.95
2023-06-15T18:13:07.307Z,16.64
2023-06-15T18:15:34.939Z,16.65
2023-06-15T18:18:01.439Z,16.59
2023-06-15T18:20:27.620Z,16.72
2023-06-15T18:22:54.073Z,16.80
2023-06-15T18:25:20.461Z,16.59
2023-06-15T18:27:46.859Z,16.37
2023-06-15T18:30:13.003Z,16.34
2023-06-15T18:32:39.162Z,16.45
2023-06-15T18:35:05.360Z,16.46
2023-06-15T18:37:31.516Z,16.38
2023-06-15T18:39:57.683Z,16.22
2023-06-15T18:42:23.830Z,16.21
2023-06-15T18:44:49.984Z,15.98
2023-06-15T18:47:16.164Z,16.08
2023-06-15T18:49:42.306Z,15.96
2023-06-15T18:52:08.464Z,15.86
2023-06-15T18:54:34.601Z,15.84
2023-06-15T18:57:00.745Z,15.64
2023-06-15T18:59:26.900Z,15.42
2023-06-15T19:01:53.117Z,15.35
2023-06-15T19:04:19.283Z,15.15
2023-06-15T19:06:45.421Z,15.06
2023-06-15T19:09:11.570Z,14.98
2023-06-15T19:11:37.720Z,14.83
2023-06-15T19:14:03.909Z,14.80
2023-06-15T19:16:30.113Z,14.77
2023-06-15T19:18:56.273Z,14.79
2023-06-15T19:21:22.434Z,14.68
2023-06-15T19:23:51.394Z,14.62
2023-06-15T19:26:17.954Z,14.46
2023-06-15T19:28:44.151Z,14.62
2023-06-15T19:31:10.304Z,14.41
2023-06-15T19:33:36.470Z,14.26
2023-06-15T19:36:02.684Z,14.44
2023-06-15T19:38:28.964Z,14.27
2023-06-15T19:40:57.782Z,14.21
2023-06-15T19:43:24.509Z,14.34
2023-06-15T19:45:50.680Z,14.13
2023-06-15T19:48:16.935Z,13.81
2023-06-15T19:50:43.103Z,13.90
2023-06-15T19:53:09.268Z,14.08
2023-06-15T19:55:35.547Z,14.00
2023-06-15T19:58:01.705Z,13.78
2023-06-15T20:00:28.221Z,13.75
2023-06-15T20:02:54.425Z,13.67
2023-06-15T20:05:20.636Z,13.68
2023-06-15T20:07:46.792Z,13.80
2023-06-15T20:10:12.939Z,13.75
2023-06-15T20:12:39.102Z,13.75
2023-06-15T20:15:05.268Z,13.65
2023-06-15T20:17:31.411Z,13.57
2023-06-15T20:19:57.639Z,13.61
2023-06-15T20:22:23.795Z,13.43
2023-06-15T20:24:49.966Z,13.58
2023-06-15T20:27:16.240Z,13.51
2023-06-15T20:29:42.447Z,13.50
2023-06-15T20:32:08.819Z,13.49
2023-06-15T20:34:34.987Z,13.37
2023-06-15T20:37:01.137Z,13.33
2023-06-15T20:39:27.328Z,13.22
2023-06-15T20:41:53.469Z,13.24
2023-06-15T20:44:19.620Z,13.30
2023-06-15T20:46:45.795Z,13.07
2023-06-15T20:49:12.009Z,12.86
2023-06-15T20:51:38.213Z,12.91
2023-06-15T20:54:04.351Z,13.07
2023-06-15T20:56:30.594Z,13.08
2023-06-15T20:58:56.807Z,13.20
2023-06-15T21:01:23.309Z,13.29
2023-06-15T21:03:49.584Z,13.20
2023-06-15T21:06:15.803Z,13.07
2023-06-15T21:08:41.997Z,13.09
2023-06-15T21:11:08.171Z,12.98
2023-06-15T21:13:34.515Z,12.99
2023-06-15T21:16:01.248Z,13.12
2023-06-15T21:18:27.418Z,12.98
2023-06-15T21:20:53.602Z,12.84
2023-06-15T21:23:19.763Z,12.88
2023-06-15T21:25:45.929Z,12.84
2023-06-15T21:28:12.090Z,12.75
2023-06-15T21:30:38.250Z,12.76
2023-06-15T21:33:04.501Z,12.66
2023-06-15T21:35:30.666Z,12.53
2023-06-15T21:37:56.809Z,12.43
2023-06-15T21:40:22.970Z,12.43
2023-06-15T21:42:49.608Z,12.59
2023-06-15T21:45:15.867Z,12.66
2023-06-15T21:47:42.008Z,12.72
2023-06-15T21:50:08.179Z,12.30
2023-06-15T21:52:34.325Z,12.40
2023-06-15T21:55:00.504Z,12.49
2023-06-15T21:57:26.633Z,12.52
2023-06-15T21:59:52.772Z,12.50
2023-06-15T22:02:18.934Z,12.05
2023-06-15T22:04:45.098Z,11.92
2023-06-15T22:07:11.264Z,11.80
2023-06-15T22:09:37.407Z,11.91
2023-06-15T22:12:04.260Z,12.02
2023-06-15T22:14:31.244Z,11.73
2023-06-15T22:16:57.422Z,11.82
2023-06-15T22:19:23.598Z,11.98
2023-06-15T22:21:49.738Z,11.97
2023-06-15T22:24:15.909Z,11.92
2023-06-15T22:26:42.088Z,11.86
2023-06-15T22:29:08.234Z,11.92
2023-06-15T22:31:34.421Z,11.90
2023-06-15T22:34:00.916Z,11.63
2023-06-15T22:36:27.083Z,11.55
2023-06-15T22:38:53.291Z,11.46
2023-06-15T22:41:19.439Z,11.41
2023-06-15T22:43:45.627Z,11.48
2023-06-15T22:46:11.795Z,11.52
2023-06-15T22:48:37.926Z,11.57
2023-06-15T22:51:04.089Z,11.70
2023-06-15T22:53:30.240Z,11.67
2023-06-15T22:55:56.394Z,11.78
2023-06-15T22:58:22.540Z,11.77
2023-06-15T23:00:48.737Z,11.58
2023-06-15T23:03:14.982Z,11.58
2023-06-15T23:05:41.177Z,11.54
2023-06-15T23:08:07.337Z,11.60
2023-06-15T23:10:33.528Z,11.72
2023-06-15T23:12:59.656Z,11.69
2023-06-15T23:15:25.845Z,11.66
2023-06-15T23:17:52.173Z,11.62
2023-06-15T23:20:18.813Z,11.57
2023-06-15T23:22:45.441Z,11.57
2023-06-15T23:25:11.579Z,11.55
2023-06-15T23:27:37.715Z,11.67
2023-06-15T23:30:03.878Z,11.71
2023-06-15T23:32:30.077Z,11.69
2023-06-15T23:34:56.250Z,11.64
2023-06-15T23:37:22.410Z,11.58
2023-06-15T23:39:48.568Z,11.55
2023-06-15T23:42:14.728Z,11.51
2023-06-15T23:44:40.904Z,11.49
2023-06-15T23:47:07.154Z,11.40
2023-06-15T23:49:33.319Z,11.30
2023-06-15T23:51:59.479Z,11.13
2023-06-15T23:54:25.619Z,11.18
2023-06-15T23:56:51.766Z,11.25
2023-06-15T23:59:17.908Z,11.23
